createdAt,value
2023-09-18T00:01:24.360Z,100843.69
2023-09-18T00:03:53.980Z,100840.03
2023-09-18T00:06:24.744Z,100834.94
2023-09-18T00:08:54.696Z,100836.53
2023-09-18T00:11:23.334Z,100830.09
2023-09-18T00:13:51.592Z,100829.47
2023-09-18T00:16:19.978Z,100830.34
2023-09-18T00:18:48.332Z,100825.94
2023-09-18T00:21:18.032Z,100826.94
2023-09-18T00:23:47.461Z,100823.53
2023-09-18T00:26:15.674Z,100814.16
2023-09-18T00:28:49.069Z,100811.63
2023-09-18T00:31:17.328Z,100814.50
2023-09-18T00:33:45.625Z,100806.75
2023-09-18T00:36:14.703Z,100810.03
2023-09-18T00:38:45.290Z,100813.31
2023-09-18T00:41:13.555Z,100825.00
2023-09-18T00:43:41.774Z,100819.88
2023-09-18T00:46:10.637Z,100823.53
2023-09-18T00:48:38.950Z,100826.56
2023-09-18T00:51:07.311Z,100821.44
2023-09-18T00:53:35.976Z,100813.06
2023-09-18T00:56:05.997Z,100800.56
2023-09-18T00:58:35.124Z,100804.09
2023-09-18T01:01:04.531Z,100799.69
2023-09-18T01:03:33.154Z,100806.88
2023-09-18T01:06:04.322Z,100803.09
2023-09-18T01:08:33.099Z,100806.88
2023-09-18T01:11:10.262Z,100808.47
2023-09-18T01:13:44.760Z,100802.63
2023-09-18T01:16:19.963Z,100801.53
2023-09-18T01:18:52.395Z,100802.00
2023-09-18T01:21:21.732Z,100808.72
2023-09-18T01:23:52.621Z,100798.75
2023-09-18T01:26:21.023Z,100801.91
2023-09-18T01:28:49.296Z,100792.03
2023-09-18T01:31:19.027Z,100803.63
2023-09-18T01:33:49.474Z,100789.00
2023-09-18T01:36:19.448Z,100794.38
2023-09-18T01:38:48.465Z,100798.75
2023-09-18T01:41:18.175Z,100797.41
2023-09-18T01:43:47.014Z,100795.09
2023-09-18T01:46:15.915Z,100793.16
2023-09-18T01:48:48.278Z,100796.28
2023-09-18T01:51:17.033Z,100790.13
2023-09-18T01:53:46.362Z,100792.56
2023-09-18T01:56:14.597Z,100799.84
2023-09-18T01:58:44.159Z,100799.47
2023-09-18T02:01:12.992Z,100796.44
2023-09-18T02:03:57.181Z,100786.13
2023-09-18T02:06:31.175Z,100787.44
2023-09-18T02:09:00.380Z,100775.44
2023-09-18T02:11:28.957Z,100764.84
2023-09-18T02:13:58.610Z,100766.22
2023-09-18T02:16:27.553Z,100772.41
2023-09-18T02:18:57.545Z,100763.03
2023-09-18T02:21:26.499Z,100757.56
2023-09-18T02:23:55.480Z,100747.50
2023-09-18T02:26:24.786Z,100734.84
2023-09-18T02:28:54.803Z,100733.50
2023-09-18T02:31:24.511Z,100733.13
2023-09-18T02:33:52.765Z,100740.03
2023-09-18T02:36:21.427Z,100724.13
2023-09-18T02:38:51.439Z,100731.78
2023-09-18T02:41:20.303Z,100711.16
2023-09-18T02:43:48.908Z,100717.34
2023-09-18T02:46:18.572Z,100720.75
2023-09-18T02:48:48.183Z,100720.13
2023-09-18T02:51:16.580Z,100718.31
2023-09-18T02:53:44.876Z,100712.00
2023-09-18T02:56:13.319Z,100704.22
2023-09-18T02:58:41.588Z,100704.22
2023-09-18T03:01:10.073Z,100707.16
2023-09-18T03:03:38.662Z,100707.88
2023-09-18T03:06:08.271Z,100710.06
2023-09-18T03:08:37.435Z,100712.94
2023-09-18T03:11:13.287Z,100712.13
2023-09-18T03:13:46.293Z,100708.81
2023-09-18T03:16:15.238Z,100704.47
2023-09-18T03:18:44.385Z,100694.75
2023-09-18T03:21:13.985Z,100697.66
2023-09-18T03:23:42.278Z,100689.66
2023-09-18T03:26:10.489Z,100686.38
2023-09-18T03:28:38.804Z,100680.44
2023-09-18T03:31:08.129Z,100678.03
2023-09-18T03:33:36.964Z,100668.28
2023-09-18T03:36:06.000Z,100673.16
2023-09-18T03:38:39.376Z,100664.91
2023-09-18T03:41:09.117Z,100665.63
2023-09-18T03:43:37.338Z,100656.63
2023-09-18T03:46:09.403Z,100665.84
2023-09-18T03:48:45.417Z,100672.16
2023-09-18T03:51:17.089Z,100672.41
2023-09-18T03:53:47.580Z,100672.53
2023-09-18T03:56:16.631Z,100677.03
2023-09-18T03:58:46.249Z,100660.91
2023-09-18T04:01:14.509Z,100662.69
2023-09-18T04:03:42.972Z,100660.75
2023-09-18T04:06:11.288Z,100658.09
2023-09-18T04:08:39.543Z,100659.31
2023-09-18T04:11:10.734Z,100643.66
2023-09-18T04:13:39.090Z,100648.84
2023-09-18T04:16:07.372Z,100642.03
2023-09-18T04:18:35.700Z,100643.25
2023-09-18T04:21:04.446Z,100642.53
2023-09-18T04:23:32.757Z,100642.66
2023-09-18T04:26:02.823Z,100630.91
2023-09-18T04:28:32.744Z,100629.22
2023-09-18T04:31:01.392Z,100623.97
2023-09-18T04:33:30.829Z,100619.47
2023-09-18T04:35:59.832Z,100613.91
2023-09-18T04:38:28.201Z,100617.53
2023-09-18T04:41:01.056Z,100612.97
2023-09-18T04:43:31.319Z,100618.75
2023-09-18T04:46:05.674Z,100624.81
2023-09-18T04:48:35.689Z,100619.59
2023-09-18T04:51:05.981Z,100615.38
2023-09-18T04:53:35.048Z,100615.16
2023-09-18T04:56:04.692Z,100617.81
2023-09-18T04:58:34.059Z,100615.88
2023-09-18T05:01:06.036Z,100608.34
2023-09-18T05:03:36.207Z,100609.09
2023-09-18T05:06:05.299Z,100608.59
2023-09-18T05:08:32.657Z,100611.50
2023-09-18T05:11:01.954Z,100621.44
2023-09-18T05:13:30.158Z,100603.50
2023-09-18T05:15:59.636Z,100613.22
2023-09-18T05:18:29.818Z,100595.47
2023-09-18T05:20:59.209Z,100590.63
2023-09-18T05:23:27.753Z,100592.06
2023-09-18T05:25:56.054Z,100598.84
2023-09-18T05:28:24.363Z,100589.59
2023-09-18T05:30:52.630Z,100586.63
2023-09-18T05:33:21.258Z,100579.22
2023-09-18T05:35:50.966Z,100578.06
2023-09-18T05:38:19.357Z,100566.44
2023-09-18T05:40:48.174Z,100569.34
2023-09-18T05:43:15.779Z,100554.56
2023-09-18T05:45:44.016Z,100558.06
2023-09-18T05:48:12.297Z,100557.16
2023-09-18T05:50:42.423Z,100561.22
2023-09-18T05:53:12.146Z,100559.84
2023-09-18T05:55:41.019Z,100564.28
2023-09-18T05:58:09.349Z,100555.53
2023-09-18T06:00:37.957Z,100546.94
2023-09-18T06:03:07.581Z,100540.50
2023-09-18T06:05:36.745Z,100528.19
2023-09-18T06:08:06.981Z,100518.97
2023-09-18T06:10:36.703Z,100511.59
2023-09-18T06:13:07.147Z,100489.78
2023-09-18T06:15:35.475Z,100480.31
2023-09-18T06:18:04.870Z,100483.06
2023-09-18T06:20:33.209Z,100478.41
2023-09-18T06:23:01.483Z,100473.56
2023-09-18T06:25:29.697Z,100467.31
2023-09-18T06:27:59.467Z,100460.59
2023-09-18T06:30:28.457Z,100458.41
2023-09-18T06:32:56.786Z,100456.41
2023-09-18T06:35:25.067Z,100453.69
2023-09-18T06:37:55.284Z,100456.59
2023-09-18T06:40:23.901Z,100439.16
2023-09-18T06:42:52.834Z,100443.13
2023-09-18T06:45:22.534Z,100440.25
2023-09-18T06:47:51.374Z,100431.88
2023-09-18T06:50:20.093Z,100428.34
2023-09-18T06:52:48.688Z,100427.34
2023-09-18T06:55:17.980Z,100419.81
2023-09-18T06:57:47.207Z,100423.34
2023-09-18T07:00:19.672Z,100431.47
2023-09-18T07:02:50.708Z,100424.06
2023-09-18T07:05:19.436Z,100426.25
2023-09-18T07:07:47.797Z,100429.09
2023-09-18T07:10:16.195Z,100433.47
2023-09-18T07:12:44.463Z,100431.69
2023-09-18T07:15:12.774Z,100434.38
2023-09-18T07:17:41.020Z,100423.03
2023-09-18T07:20:15.630Z,100409.16
2023-09-18T07:22:47.968Z,100426.22
2023-09-18T07:25:16.443Z,100414.09
2023-09-18T07:27:45.785Z,100412.34
2023-09-18T07:30:17.212Z,100407.03
2023-09-18T07:32:45.665Z,100408.88
2023-09-18T07:35:16.014Z,100408.28
2023-09-18T07:37:46.506Z,100402.41
2023-09-18T07:40:14.808Z,100408.50
2023-09-18T07:42:44.904Z,100401.63
2023-09-18T07:45:13.515Z,100395.78
2023-09-18T07:47:42.143Z,100395.66
2023-09-18T07:50:10.853Z,100390.84
2023-09-18T07:52:40.467Z,100399.59
2023-09-18T07:55:10.800Z,100400.69
2023-09-18T07:57:39.351Z,100400.63
2023-09-18T08:00:13.534Z,100397.81
2023-09-18T08:02:43.429Z,100397.13
2023-09-18T08:05:12.621Z,100386.88
2023-09-18T08:07:42.228Z,100382.75
2023-09-18T08:10:11.161Z,100376.94
2023-09-18T08:12:39.375Z,100379.34
2023-09-18T08:15:09.857Z,100372.28
2023-09-18T08:17:38.225Z,100377.69
2023-09-18T08:20:13.940Z,100379.44
2023-09-18T08:22:44.384Z,100391.25
2023-09-18T08:25:13.446Z,100391.47
2023-09-18T08:27:43.212Z,100397.50
2023-09-18T08:30:12.890Z,100391.13
2023-09-18T08:32:42.244Z,100395.72
2023-09-18T08:35:11.330Z,100384.78
2023-09-18T08:37:39.606Z,100373.16
2023-09-18T08:40:12.451Z,100371.88
2023-09-18T08:42:42.726Z,100373.41
2023-09-18T08:45:12.271Z,100367.34
2023-09-18T08:47:41.933Z,100367.06
2023-09-18T08:50:11.606Z,100360.91
2023-09-18T08:52:40.068Z,100369.25
2023-09-18T08:55:11.410Z,100358.44
2023-09-18T08:57:41.782Z,100356.91
2023-09-18T09:00:13.082Z,100351.19
2023-09-18T09:02:41.476Z,100351.59
2023-09-18T09:05:09.954Z,100353.50
2023-09-18T09:07:38.263Z,100341.13
2023-09-18T09:10:07.142Z,100330.75
2023-09-18T09:12:55.599Z,100317.56
2023-09-18T09:15:25.682Z,100332.34
2023-09-18T09:18:03.152Z,100330.97
2023-09-18T09:20:31.672Z,100324.94
2023-09-18T09:23:02.691Z,100320.53
2023-09-18T09:25:33.939Z,100321.41
2023-09-18T09:28:06.224Z,100314.03
2023-09-18T09:30:36.980Z,100312.34
2023-09-18T09:33:06.705Z,100303.81
2023-09-18T09:35:36.364Z,100299.66
2023-09-18T09:38:10.989Z,100302.19
2023-09-18T09:40:41.618Z,100290.50
2023-09-18T09:43:16.105Z,100296.38
2023-09-18T09:45:47.783Z,100293.59
2023-09-18T09:48:16.725Z,100285.44
2023-09-18T09:50:50.109Z,100279.00
2023-09-18T09:53:19.276Z,100283.81
2023-09-18T09:55:56.906Z,100264.31
2023-09-18T09:58:33.853Z,100264.25
2023-09-18T10:01:09.985Z,100246.59
2023-09-18T10:03:40.261Z,100242.63
2023-09-18T10:06:11.537Z,100249.06
2023-09-18T10:08:41.949Z,100245.97
2023-09-18T10:11:17.701Z,100237.81
2023-09-18T10:13:52.953Z,100232.56
2023-09-18T10:16:26.936Z,100221.88
2023-09-18T10:19:01.987Z,100226.94
2023-09-18T10:21:38.341Z,100218.97
2023-09-18T10:24:16.601Z,100220.84
2023-09-18T10:26:52.794Z,100220.22
2023-09-18T10:29:24.867Z,100212.69
2023-09-18T10:31:54.267Z,100203.44
2023-09-18T10:34:24.615Z,100200.72
2023-09-18T10:36:54.470Z,100198.59
2023-09-18T10:39:25.402Z,100195.09
2023-09-18T10:41:55.119Z,100197.81
2023-09-18T10:44:25.453Z,100188.56
2023-09-18T10:46:54.783Z,100173.47
2023-09-18T10:49:23.948Z,100181.47
2023-09-18T10:51:56.167Z,100187.91
2023-09-18T10:54:26.506Z,100186.69
2023-09-18T10:56:55.187Z,100188.56
2023-09-18T10:59:25.257Z,100175.81
2023-09-18T11:04:23.371Z,100189.13
2023-09-18T11:07:04.339Z,100182.91
2023-09-18T11:09:35.119Z,100191.88
2023-09-18T11:12:07.810Z,100191.72
2023-09-18T11:14:52.150Z,100190.44
2023-09-18T11:17:32.090Z,100182.91
2023-09-18T11:20:10.995Z,100187.91
2023-09-18T11:22:40.534Z,100187.00
2023-09-18T11:25:32.039Z,100187.91
2023-09-18T11:28:00.330Z,100182.28
2023-09-18T11:30:30.979Z,100186.41
2023-09-18T11:32:59.601Z,100176.44
2023-09-18T11:35:28.239Z,100178.53
2023-09-18T11:38:07.731Z,100176.34
2023-09-18T11:40:42.375Z,100175.81
2023-09-18T11:43:24.738Z,100170.47
2023-09-18T11:45:56.756Z,100166.34
2023-09-18T11:48:29.152Z,100171.00
2023-09-18T11:50:59.778Z,100159.88
2023-09-18T11:53:29.990Z,100165.00
2023-09-18T11:55:58.435Z,100165.00
2023-09-18T11:58:26.918Z,100171.06
2023-09-18T12:00:57.112Z,100166.25
2023-09-18T12:03:29.592Z,100188.50
2023-09-18T12:06:00.681Z,100194.00
2023-09-18T12:08:32.181Z,100193.16
2023-09-18T12:11:00.968Z,100183.31
2023-09-18T12:13:29.929Z,100175.38
2023-09-18T12:16:01.360Z,100177.50
2023-09-18T12:18:31.177Z,100177.69
2023-09-18T12:21:00.609Z,100174.72
2023-09-18T12:23:30.368Z,100170.13
2023-09-18T12:26:01.339Z,100166.97
2023-09-18T12:28:30.892Z,100170.22
2023-09-18T12:31:07.127Z,100167.84
2023-09-18T12:33:37.634Z,100165.81
2023-09-18T12:36:07.025Z,100154.44
2023-09-18T12:38:38.028Z,100156.88
2023-09-18T12:41:10.475Z,100152.19
2023-09-18T12:43:41.483Z,100163.63
2023-09-18T12:46:11.742Z,100166.88
2023-09-18T12:48:46.545Z,100157.47
2023-09-18T12:51:17.778Z,100160.91
2023-09-18T12:53:46.114Z,100155.03
2023-09-18T12:56:15.403Z,100152.88
2023-09-18T12:59:01.852Z,100152.25
2023-09-18T13:01:33.883Z,100142.41
2023-09-18T13:04:07.301Z,100142.47
2023-09-18T13:06:35.837Z,100127.66
2023-09-18T13:09:20.875Z,100125.19
2023-09-18T13:11:56.495Z,100142.09
2023-09-18T13:14:25.019Z,100132.00
2023-09-18T13:16:55.016Z,100125.84
2023-09-18T13:19:23.793Z,100118.63
2023-09-18T13:21:56.047Z,100124.44
2023-09-18T13:24:29.534Z,100125.25
2023-09-18T13:27:00.158Z,100120.41
2023-09-18T13:29:28.762Z,100121.31
2023-09-18T13:31:59.003Z,100128.44
2023-09-18T13:34:27.206Z,100126.56
2023-09-18T13:36:55.362Z,100135.38
2023-09-18T13:39:23.581Z,100135.59
2023-09-18T13:41:51.869Z,100139.25
2023-09-18T13:44:22.405Z,100134.66
2023-09-18T13:46:51.010Z,100134.66
2023-09-18T13:49:20.652Z,100139.47
2023-09-18T13:51:49.144Z,100135.28
2023-09-18T13:54:17.772Z,100144.06
2023-09-18T13:56:46.086Z,100148.69
2023-09-18T13:59:14.330Z,100142.38
2023-09-18T14:01:42.594Z,100143.63
2023-09-18T14:04:11.890Z,100154.13
2023-09-18T14:06:41.612Z,100154.13
2023-09-18T14:09:11.563Z,100154.94
2023-09-18T14:11:40.028Z,100164.16
2023-09-18T14:14:08.543Z,100154.53
2023-09-18T14:16:36.848Z,100155.75
2023-09-18T14:19:05.919Z,100161.53
2023-09-18T14:21:34.994Z,100164.84
2023-09-18T14:24:05.041Z,100164.03
2023-09-18T14:26:34.876Z,100153.38
2023-09-18T14:29:03.228Z,100146.53
2023-09-18T14:31:31.751Z,100139.44
2023-09-18T14:34:01.202Z,100140.38
2023-09-18T14:36:30.563Z,100144.31
2023-09-18T14:38:59.204Z,100157.72
2023-09-18T14:41:29.150Z,100152.81
2023-09-18T14:43:58.721Z,100152.75
2023-09-18T14:46:27.284Z,100149.84
2023-09-18T14:48:56.046Z,100148.16
2023-09-18T14:51:24.876Z,100150.19
2023-09-18T14:53:53.646Z,100165.25
2023-09-18T14:56:22.243Z,100150.50
2023-09-18T14:58:56.280Z,100149.19
2023-09-18T15:01:24.850Z,100144.31
2023-09-18T15:03:53.463Z,100150.63
2023-09-18T15:06:21.933Z,100151.91
2023-09-18T15:08:50.525Z,100147.72
2023-09-18T15:11:19.014Z,100145.34
2023-09-18T15:13:47.844Z,100136.44
2023-09-18T15:16:17.496Z,100129.00
2023-09-18T15:18:45.789Z,100131.13
2023-09-18T15:21:14.030Z,100123.81
2023-09-18T15:23:42.301Z,100114.00
2023-09-18T15:26:10.556Z,100110.16
2023-09-18T15:28:38.778Z,100103.22
2023-09-18T15:31:07.158Z,100096.97
2023-09-18T15:33:37.156Z,100100.50
2023-09-18T15:36:06.116Z,100118.38
2023-09-18T15:38:34.484Z,100120.13
2023-09-18T15:41:02.827Z,100122.09
2023-09-18T15:43:33.556Z,100135.78
2023-09-18T15:46:03.553Z,100141.41
2023-09-18T15:48:31.889Z,100150.50
2023-09-18T15:51:02.146Z,100138.25
2023-09-18T15:53:30.475Z,100139.09
2023-09-18T15:56:01.403Z,100140.44
2023-09-18T15:58:29.749Z,100134.13
2023-09-18T16:00:59.298Z,100153.69
2023-09-18T16:03:28.611Z,100144.56
2023-09-18T16:05:57.000Z,100155.59
2023-09-18T16:08:26.733Z,100147.22
2023-09-18T16:10:54.994Z,100146.72
2023-09-18T16:13:23.377Z,100152.50
2023-09-18T16:15:52.220Z,100150.56
2023-09-18T16:18:20.621Z,100147.94
2023-09-18T16:20:48.909Z,100152.06
2023-09-18T16:23:17.191Z,100144.47
2023-09-18T16:25:46.745Z,100141.63
2023-09-18T16:28:15.133Z,100143.28
2023-09-18T16:30:43.311Z,100142.50
2023-09-18T16:33:12.408Z,100140.78
2023-09-18T16:35:40.879Z,100146.78
2023-09-18T16:38:09.214Z,100143.81
2023-09-18T16:40:37.714Z,100139.59
2023-09-18T16:43:07.592Z,100139.41
2023-09-18T16:45:35.801Z,100138.22
2023-09-18T16:48:05.832Z,100138.56
2023-09-18T16:50:34.217Z,100141.63
2023-09-18T16:53:02.498Z,100140.84
2023-09-18T16:55:29.807Z,100138.16
2023-09-18T16:57:58.270Z,100143.50
2023-09-18T17:00:27.935Z,100149.72
2023-09-18T17:02:56.186Z,100147.69
2023-09-18T17:05:24.585Z,100145.63
2023-09-18T17:07:52.825Z,100146.69
2023-09-18T17:10:21.140Z,100147.81
2023-09-18T17:12:49.671Z,100146.13
2023-09-18T17:15:25.751Z,100143.63
2023-09-18T17:17:59.908Z,100139.38
2023-09-18T17:20:30.139Z,100126.34
2023-09-18T17:22:58.970Z,100137.28
2023-09-18T17:25:27.739Z,100133.16
2023-09-18T17:27:56.980Z,100137.03
2023-09-18T17:30:27.970Z,100140.78
2023-09-18T17:32:57.761Z,100134.06
2023-09-18T17:35:26.243Z,100134.53
2023-09-18T17:37:54.836Z,100137.91
2023-09-18T17:40:23.126Z,100136.41
2023-09-18T17:42:51.505Z,100134.09
2023-09-18T17:45:19.930Z,100135.97
2023-09-18T17:47:48.717Z,100134.34
2023-09-18T17:50:18.565Z,100132.47
2023-09-18T17:52:47.101Z,100121.00
2023-09-18T17:55:15.403Z,100124.25
2023-09-18T17:57:43.751Z,100113.44
2023-09-18T18:00:17.231Z,100108.03
2023-09-18T18:02:47.197Z,100103.53
2023-09-18T18:05:16.119Z,100102.22
2023-09-18T18:07:46.749Z,100124.59
2023-09-18T18:10:15.169Z,100136.94
2023-09-18T18:12:43.449Z,100141.28
2023-09-18T18:15:14.125Z,100140.97
2023-09-18T18:17:42.474Z,100141.84
2023-09-18T18:20:11.403Z,100134.41
2023-09-18T18:22:40.314Z,100143.56
2023-09-18T18:25:10.775Z,100140.47
2023-09-18T18:27:39.052Z,100137.25
2023-09-18T18:30:08.642Z,100136.72
2023-09-18T18:32:37.777Z,100134.97
2023-09-18T18:35:07.310Z,100135.16
2023-09-18T18:37:35.675Z,100134.00
2023-09-18T18:40:07.905Z,100131.13
2023-09-18T18:42:37.612Z,100129.31
2023-09-18T18:45:07.039Z,100118.72
2023-09-18T18:47:35.485Z,100125.31
2023-09-18T18:50:03.825Z,100124.16
2023-09-18T18:52:32.121Z,100126.06
2023-09-18T18:55:00.375Z,100120.63
2023-09-18T18:57:28.734Z,100119.84
2023-09-18T18:59:58.334Z,100117.81
2023-09-18T19:02:27.180Z,100110.63
2023-09-18T19:04:55.731Z,100119.59
2023-09-18T19:07:23.978Z,100129.00
2023-09-18T19:09:54.942Z,100116.19
2023-09-18T19:12:25.040Z,100114.81
2023-09-18T19:14:54.247Z,100117.69
2023-09-18T19:17:24.634Z,100116.84
2023-09-18T19:19:53.681Z,100115.53
2023-09-18T19:22:22.814Z,100105.34
2023-09-18T19:24:51.709Z,100108.78
2023-09-18T19:27:20.048Z,100113.72
2023-09-18T19:29:51.315Z,100113.75
2023-09-18T19:32:19.880Z,100113.25
2023-09-18T19:34:49.466Z,100111.28
2023-09-18T19:37:17.771Z,100107.25
2023-09-18T19:39:45.972Z,100108.59
2023-09-18T19:42:14.194Z,100110.69
2023-09-18T19:44:45.889Z,100122.09
2023-09-18T19:47:14.349Z,100116.91
2023-09-18T19:49:42.596Z,100116.91
2023-09-18T19:52:14.719Z,100118.75
2023-09-18T19:54:43.006Z,100114.91
2023-09-18T19:57:11.462Z,100110.53
2023-09-18T19:59:39.770Z,100111.53
2023-09-18T20:02:09.713Z,100113.03
2023-09-18T20:04:38.199Z,100108.84
2023-09-18T20:07:09.413Z,100111.72
2023-09-18T20:09:38.941Z,100113.88
2023-09-18T20:12:10.329Z,100122.47
2023-09-18T20:14:39.181Z,100118.25
2023-09-18T20:17:07.504Z,100127.84
2023-09-18T20:19:35.728Z,100130.84
2023-09-18T20:22:04.165Z,100134.88
2023-09-18T20:24:33.007Z,100140.75
2023-09-18T20:27:02.594Z,100138.41
2023-09-18T20:29:30.956Z,100128.50
2023-09-18T20:31:59.286Z,100120.63
2023-09-18T20:34:27.603Z,100130.50
2023-09-18T20:36:55.966Z,100135.72
2023-09-18T20:39:25.149Z,100126.97
2023-09-18T20:41:54.516Z,100121.56
2023-09-18T20:44:25.138Z,100125.13
2023-09-18T20:46:53.444Z,100125.31
2023-09-18T20:49:21.720Z,100125.63
2023-09-18T20:51:50.363Z,100132.19
2023-09-18T20:54:18.698Z,100131.00
2023-09-18T20:56:47.215Z,100127.47
2023-09-18T20:59:15.659Z,100120.75
2023-09-18T21:01:45.365Z,100123.63
2023-09-18T21:04:13.841Z,100120.44
2023-09-18T21:06:43.564Z,100117.56
2023-09-18T21:09:14.491Z,100119.91
2023-09-18T21:11:43.247Z,100124.75
2023-09-18T21:14:11.893Z,100122.91
2023-09-18T21:16:40.363Z,100131.31
2023-09-18T21:19:10.947Z,100129.97
2023-09-18T21:21:39.148Z,100129.97
2023-09-18T21:24:08.456Z,100128.44
2023-09-18T21:26:36.811Z,100138.34
2023-09-18T21:29:05.467Z,100136.44
2023-09-18T21:31:33.962Z,100142.66
2023-09-18T21:34:02.656Z,100144.25
2023-09-18T21:36:32.279Z,100145.91
2023-09-18T21:39:00.548Z,100150.88
2023-09-18T21:41:28.766Z,100154.09
2023-09-18T21:43:57.031Z,100158.41
2023-09-18T21:46:25.345Z,100164.75
2023-09-18T21:48:54.509Z,100166.47
2023-09-18T21:51:22.944Z,100159.06
2023-09-18T21:53:54.209Z,100154.19
2023-09-18T21:56:22.454Z,100151.50
2023-09-18T21:58:50.789Z,100145.09
2023-09-18T22:01:21.573Z,100148.63
2023-09-18T22:03:49.916Z,100151.69
2023-09-18T22:06:18.132Z,100160.06
2023-09-18T22:08:46.654Z,100160.69
2023-09-18T22:11:16.341Z,100154.97
2023-09-18T22:13:44.538Z,100154.97
2023-09-18T22:16:14.456Z,100141.38
2023-09-18T22:18:44.558Z,100132.59
2023-09-18T22:21:13.311Z,100138.44
2023-09-18T22:23:41.757Z,100132.56
2023-09-18T22:26:10.160Z,100139.41
2023-09-18T22:28:40.712Z,100137.94
2023-09-18T22:31:14.702Z,100140.84
2023-09-18T22:33:44.410Z,100143.38
2023-09-18T22:36:26.535Z,100145.94
2023-09-18T22:39:10.473Z,100140.72
2023-09-18T22:41:39.985Z,100135.00
2023-09-18T22:44:46.234Z,100147.53
2023-09-18T22:47:53.768Z,100135.00
2023-09-18T22:50:59.405Z,100142.69
2023-09-18T22:53:27.420Z,100144.69
2023-09-18T22:55:57.400Z,100138.97
2023-09-18T23:00:58.792Z,100158.41
2023-09-18T23:03:28.286Z,100163.28
2023-09-18T23:05:56.937Z,100156.19
2023-09-18T23:08:25.327Z,100152.81
2023-09-18T23:10:53.902Z,100153.97
2023-09-18T23:13:25.997Z,100154.81
2023-09-18T23:15:54.294Z,100149.09
2023-09-18T23:18:22.544Z,100145.59
2023-09-18T23:20:52.005Z,100146.28
2023-09-18T23:23:20.668Z,100151.09
2023-09-18T23:25:48.940Z,100144.59
2023-09-18T23:28:17.564Z,100135.00
2023-09-18T23:30:47.218Z,100136.34
2023-09-18T23:33:16.024Z,100134.25
2023-09-18T23:35:46.227Z,100144.44
2023-09-18T23:38:14.476Z,100139.94
2023-09-18T23:40:42.667Z,100138.44
2023-09-18T23:43:11.543Z,100130.31
2023-09-18T23:45:42.795Z,100134.97
2023-09-18T23:48:15.773Z,100134.81
2023-09-18T23:50:48.830Z,100125.97
2023-09-18T23:53:19.365Z,100125.97
2023-09-18T23:55:49.057Z,100127.59
2023-09-18T23:58:19.231Z,100133.72
